createdAt,value
2023-05-22T10:08:31.471Z,97745.38
2023-05-22T10:10:32.820Z,97739.47
2023-05-22T10:12:34.266Z,97742.00
2023-05-22T10:14:36.413Z,97747.13
2023-05-22T10:16:38.474Z,97740.25
2023-05-22T10:18:39.955Z,97747.91
2023-05-22T10:20:41.446Z,97735.13
2023-05-22T10:22:42.965Z,97733.44
2023-05-22T10:24:44.328Z,97740.25
2023-05-22T10:26:45.833Z,97730.94
2023-05-22T10:28:47.354Z,97737.72
2023-05-22T10:30:48.762Z,97737.69
2023-05-22T10:32:50.119Z,97733.44
2023-05-22T10:34:51.562Z,97731.88
2023-05-22T10:36:54.442Z,97732.75
2023-05-22T10:38:57.816Z,97729.34
2023-05-22T10:40:59.186Z,97724.31
2023-05-22T10:43:01.131Z,97723.53
2023-05-22T10:45:02.481Z,97726.97
2023-05-22T10:47:03.938Z,97715.94
2023-05-22T10:49:05.265Z,97719.41
2023-05-22T10:51:06.672Z,97714.28
2023-05-22T10:53:08.010Z,97716.00
2023-05-22T10:55:09.478Z,97724.44
2023-05-22T10:57:11.641Z,97720.94
2023-05-22T10:59:13.034Z,97713.28
2023-05-22T11:01:14.920Z,97712.44
2023-05-22T11:03:18.319Z,97715.03
2023-05-22T11:05:21.653Z,97738.06
2023-05-22T11:07:23.083Z,97715.94
2023-05-22T11:09:24.495Z,97714.28
2023-05-22T11:11:26.228Z,97720.19
2023-05-22T11:13:29.303Z,97707.34
2023-05-22T11:15:31.042Z,97717.47
2023-05-22T11:17:32.696Z,97720.03
2023-05-22T11:19:34.119Z,97712.44
2023-05-22T11:21:35.517Z,97714.22
2023-05-22T11:23:36.890Z,97710.03
2023-05-22T11:25:38.554Z,97710.91
2023-05-22T11:27:39.903Z,97713.59
2023-05-22T11:29:43.448Z,97700.00
2023-05-22T11:31:44.787Z,97700.06
2023-05-22T11:33:46.204Z,97695.81
2023-05-22T11:35:47.662Z,97699.22
2023-05-22T11:37:49.013Z,97699.22
2023-05-22T11:39:51.196Z,97706.03
2023-05-22T11:41:52.570Z,97699.25
2023-05-22T11:43:54.564Z,97700.06
2023-05-22T11:45:55.927Z,97694.16
2023-05-22T11:47:57.335Z,97695.88
2023-05-22T11:49:59.881Z,97692.53
2023-05-22T11:52:01.228Z,97691.59
2023-05-22T11:54:02.574Z,97691.59
2023-05-22T11:56:04.906Z,97693.31
2023-05-22T11:58:06.237Z,97690.75
2023-05-22T12:00:08.566Z,97698.41
2023-05-22T12:02:10.402Z,97698.41
2023-05-22T12:04:11.915Z,97690.75
2023-05-22T12:06:15.793Z,97694.09
2023-05-22T12:08:18.582Z,97696.72
2023-05-22T12:10:19.914Z,97687.38
2023-05-22T12:12:22.462Z,97696.50
2023-05-22T12:14:24.083Z,97696.63
2023-05-22T12:16:25.701Z,97680.69
2023-05-22T12:18:27.064Z,97684.25
2023-05-22T12:20:28.430Z,97679.47
2023-05-22T12:22:29.844Z,97677.84
2023-05-22T12:24:31.312Z,97671.84
2023-05-22T12:26:32.744Z,97677.59
2023-05-22T12:28:34.108Z,97676.78
2023-05-22T12:30:35.432Z,97661.63
2023-05-22T12:32:36.802Z,97673.53
2023-05-22T12:34:43.859Z,97670.75
2023-05-22T12:36:45.374Z,97674.94
2023-05-22T12:38:46.769Z,97673.91
2023-05-22T12:40:48.323Z,97671.25
2023-05-22T12:42:49.724Z,97666.00
2023-05-22T12:44:52.126Z,97660.81
2023-05-22T12:46:53.671Z,97654.91
2023-05-22T12:48:55.423Z,97666.00
2023-05-22T12:50:56.788Z,97656.78
2023-05-22T12:52:58.110Z,97651.75
2023-05-22T12:54:59.556Z,97653.47
2023-05-22T12:57:01.061Z,97676.56
2023-05-22T12:59:02.388Z,97644.09
2023-05-22T13:01:03.993Z,97646.06
2023-05-22T13:03:05.414Z,97647.94
2023-05-22T13:05:06.814Z,97642.38
2023-05-22T13:07:08.228Z,97643.34
2023-05-22T13:09:09.643Z,97638.25
2023-05-22T13:11:11.116Z,97635.69
2023-05-22T13:13:12.519Z,97636.53
2023-05-22T13:15:15.349Z,97633.97
2023-05-22T13:17:16.840Z,97631.41
2023-05-22T13:19:18.292Z,97640.84
2023-05-22T13:21:19.719Z,97637.59
2023-05-22T13:23:21.055Z,97633.38
2023-05-22T13:25:22.387Z,97630.81
2023-05-22T13:27:23.740Z,97639.47
2023-05-22T13:29:25.065Z,97629.28
2023-05-22T13:31:26.395Z,97635.19
2023-05-22T13:33:27.922Z,97626.63
2023-05-22T13:35:29.304Z,97627.41
2023-05-22T13:37:30.707Z,97635.06
2023-05-22T13:39:32.048Z,97630.81
2023-05-22T13:41:33.379Z,97616.50
2023-05-22T13:43:34.760Z,97614.03
2023-05-22T13:45:36.122Z,97616.66
2023-05-22T13:47:38.558Z,97626.94
2023-05-22T13:49:40.018Z,97609.91
2023-05-22T13:51:41.439Z,97623.63
2023-05-22T13:53:42.874Z,97613.53
2023-05-22T13:55:44.268Z,97606.75
2023-05-22T13:57:45.843Z,97609.47
2023-05-22T13:59:47.267Z,97612.94
2023-05-22T14:01:48.591Z,97610.41
2023-05-22T14:03:49.921Z,97612.97
2023-05-22T14:05:51.434Z,97615.81
2023-05-22T14:07:52.844Z,97603.97
2023-05-22T14:09:54.176Z,97603.69
2023-05-22T14:11:57.699Z,97602.66
2023-05-22T14:13:59.028Z,97604.25
2023-05-22T14:16:00.387Z,97605.88
2023-05-22T14:18:01.744Z,97598.19
2023-05-22T14:20:03.983Z,97594.69
2023-05-22T14:22:05.348Z,97588.47
2023-05-22T14:24:06.697Z,97587.59
2023-05-22T14:26:08.022Z,97587.59
2023-05-22T14:28:09.504Z,97588.34
2023-05-22T14:30:13.535Z,97595.06
2023-05-22T14:32:14.937Z,97588.44
2023-05-22T14:34:16.419Z,97594.78
2023-05-22T14:36:17.932Z,97594.66
2023-05-22T14:38:19.332Z,97597.66
2023-05-22T14:40:20.669Z,97597.38
2023-05-22T14:42:22.001Z,97596.47
2023-05-22T14:44:23.390Z,97589.72
2023-05-22T14:46:24.747Z,97594.91
2023-05-22T14:48:26.600Z,97588.13
2023-05-22T14:50:28.290Z,97590.66
2023-05-22T14:52:29.626Z,97594.91
2023-05-22T14:54:30.944Z,97588.91
2023-05-22T14:56:32.284Z,97594.00
2023-05-22T14:58:33.630Z,97594.06
2023-05-22T15:00:34.963Z,97589.09
2023-05-22T15:02:36.322Z,97596.00
2023-05-22T15:04:37.839Z,97585.03
2023-05-22T15:06:42.263Z,97591.06
2023-05-22T15:08:43.729Z,97588.59
2023-05-22T15:10:45.240Z,97591.13
2023-05-22T15:12:46.564Z,97586.91
2023-05-22T15:14:47.883Z,97583.50
2023-05-22T15:16:50.337Z,97586.13
2023-05-22T15:18:51.934Z,97581.09
2023-05-22T15:20:53.538Z,97574.38
2023-05-22T15:22:54.943Z,97576.13
2023-05-22T15:24:56.264Z,97577.88
2023-05-22T15:27:00.807Z,97573.78
2023-05-22T15:29:02.251Z,97569.59
2023-05-22T15:31:03.589Z,97572.19
2023-05-22T15:33:05.055Z,97568.00
2023-05-22T15:35:06.505Z,97566.31
2023-05-22T15:37:07.826Z,97556.16
2023-05-22T15:39:09.215Z,97560.47
2023-05-22T15:41:10.592Z,97554.53
2023-05-22T15:43:12.000Z,97554.56
2023-05-22T15:45:13.373Z,97555.47
2023-05-22T15:47:14.942Z,97553.78
2023-05-22T15:49:16.270Z,97556.31
2023-05-22T15:51:17.630Z,97555.53
2023-05-22T15:53:19.050Z,97549.66
2023-05-22T15:55:20.441Z,97546.25
2023-05-22T15:57:24.684Z,97543.72
2023-05-22T15:59:26.007Z,97542.09
2023-05-22T16:01:29.455Z,97547.28
2023-05-22T16:03:31.000Z,97543.88
2023-05-22T16:05:34.800Z,97551.59
2023-05-22T16:07:39.001Z,97552.47
2023-05-22T16:09:41.780Z,97548.28
2023-05-22T16:11:43.436Z,97541.47
2023-05-22T16:13:45.188Z,97545.66
2023-05-22T16:15:46.624Z,97548.22
2023-05-22T16:17:48.072Z,97548.22
2023-05-22T16:19:51.144Z,97549.03
2023-05-22T16:21:52.505Z,97534.59
2023-05-22T16:23:53.867Z,97541.38
2023-05-22T16:25:55.270Z,97537.13
2023-05-22T16:27:56.648Z,97535.38
2023-05-22T16:29:58.010Z,97534.56
2023-05-22T16:31:59.571Z,97531.16
2023-05-22T16:34:01.045Z,97524.34
2023-05-22T16:36:02.376Z,97532.00
2023-05-22T16:38:03.727Z,97524.38
2023-05-22T16:40:05.867Z,97527.81
2023-05-22T16:42:10.215Z,97521.06
2023-05-22T16:44:11.545Z,97517.72
2023-05-22T16:46:12.911Z,97525.44
2023-05-22T16:48:14.537Z,97516.97
2023-05-22T16:50:22.067Z,97514.44
2023-05-22T16:52:25.545Z,97522.97
2023-05-22T16:54:26.960Z,97522.19
2023-05-22T16:56:32.747Z,97523.94
2023-05-22T16:58:34.231Z,97520.59
2023-05-22T17:00:35.630Z,97523.22
2023-05-22T17:02:37.843Z,97524.13
2023-05-22T17:04:40.190Z,97517.34
2023-05-22T17:06:41.515Z,97523.38
2023-05-22T17:08:42.886Z,97519.13
2023-05-22T17:10:44.304Z,97512.41
2023-05-22T17:12:45.651Z,97514.16
2023-05-22T17:14:46.993Z,97517.59
2023-05-22T17:16:48.989Z,97515.94
2023-05-22T17:18:51.831Z,97400.25
2023-05-22T17:20:55.729Z,97512.00
2023-05-22T17:22:57.077Z,97513.50
2023-05-22T17:24:58.395Z,97508.66
2023-05-22T17:27:00.128Z,97505.44
2023-05-22T17:29:07.587Z,97507.34
2023-05-22T17:31:09.122Z,97506.97
2023-05-22T17:33:10.854Z,97512.88
2023-05-22T17:35:15.243Z,97507.19
2023-05-22T17:37:16.562Z,97507.69
2023-05-22T17:39:17.895Z,97506.13
2023-05-22T17:41:19.261Z,97510.97
2023-05-22T17:43:20.718Z,97500.06
2023-05-22T17:45:22.046Z,97509.50
2023-05-22T17:47:23.429Z,97511.78
2023-05-22T17:49:24.832Z,97514.06
2023-05-22T17:51:29.089Z,97508.78
2023-05-22T17:53:34.591Z,97503.44
2023-05-22T17:55:37.047Z,97504.13
2023-05-22T17:57:38.619Z,97516.38
2023-05-22T17:59:40.554Z,97513.91
2023-05-22T18:01:42.039Z,97514.44
2023-05-22T18:03:43.516Z,97508.47
2023-05-22T18:05:44.919Z,97520.34
2023-05-22T18:07:46.319Z,97516.88
2023-05-22T18:09:47.707Z,97514.91
2023-05-22T18:11:49.023Z,97512.34
2023-05-22T18:13:50.355Z,97512.03
2023-05-22T18:15:51.849Z,97512.38
2023-05-22T18:17:53.389Z,97344.59
2023-05-22T18:19:54.724Z,97505.78
2023-05-22T18:21:56.351Z,97504.41
2023-05-22T18:24:06.637Z,97511.81
2023-05-22T18:26:12.423Z,97501.22
2023-05-22T18:28:13.835Z,97503.34
2023-05-22T18:30:15.165Z,97498.66
2023-05-22T18:32:16.557Z,97496.59
2023-05-22T18:34:17.979Z,97494.66
2023-05-22T18:36:19.299Z,97495.34
2023-05-22T18:38:22.129Z,97490.31
2023-05-22T18:40:26.294Z,97490.81
2023-05-22T18:42:27.623Z,97491.91
2023-05-22T18:44:28.952Z,97489.25
2023-05-22T18:46:30.403Z,97494.75
2023-05-22T18:48:33.209Z,97488.31
2023-05-22T18:50:34.681Z,97483.59
2023-05-22T18:52:42.275Z,97481.94
2023-05-22T18:54:43.765Z,97479.63
2023-05-22T18:56:45.336Z,97485.00
2023-05-22T18:58:46.749Z,97488.84
2023-05-22T19:00:48.210Z,97486.94
2023-05-22T19:02:52.554Z,97479.78
2023-05-22T19:04:55.636Z,97487.03
2023-05-22T19:06:57.681Z,97483.38
2023-05-22T19:09:01.837Z,97496.50
2023-05-22T19:11:03.205Z,97472.56
2023-05-22T19:13:10.284Z,97478.81
2023-05-22T19:15:14.574Z,97484.34
2023-05-22T19:17:16.119Z,97483.25
2023-05-22T19:19:17.672Z,97485.56
2023-05-22T19:21:19.356Z,97485.75
2023-05-22T19:23:20.679Z,97491.88
2023-05-22T19:25:22.085Z,97482.28
2023-05-22T19:27:26.294Z,97490.63
2023-05-22T19:29:27.615Z,97488.72
2023-05-22T19:31:37.784Z,97495.34
2023-05-22T19:33:39.389Z,97498.66
2023-05-22T19:35:44.378Z,97494.44
2023-05-22T19:37:46.178Z,97490.75
2023-05-22T19:39:50.482Z,97499.22
2023-05-22T19:41:54.986Z,97494.94
2023-05-22T19:43:56.312Z,97500.09
2023-05-22T19:46:05.370Z,97496.66
2023-05-22T19:48:08.473Z,97492.31
2023-05-22T19:50:09.858Z,97491.31
2023-05-22T19:52:11.258Z,97491.88
2023-05-22T19:54:12.703Z,97491.13
2023-05-22T19:56:14.038Z,97489.31
2023-05-22T19:58:15.411Z,97489.28
2023-05-22T20:00:16.878Z,97492.09
2023-05-22T20:02:18.319Z,97488.47
2023-05-22T20:04:19.707Z,97488.31
2023-05-22T20:06:21.390Z,97491.56
2023-05-22T20:08:26.198Z,97485.44
2023-05-22T20:10:27.574Z,97488.84
2023-05-22T20:12:28.984Z,97487.88
2023-05-22T20:14:30.399Z,97490.81
2023-05-22T20:16:31.862Z,97496.34
2023-05-22T20:18:33.270Z,97491.31
2023-05-22T20:20:35.225Z,97493.22
2023-05-22T20:22:39.319Z,97493.28
2023-05-22T20:24:40.728Z,97495.00
2023-05-22T20:26:42.132Z,97497.66
2023-05-22T20:28:43.451Z,97495.91
2023-05-22T20:30:44.860Z,97504.38
2023-05-22T20:32:47.085Z,97494.91
2023-05-22T20:34:48.521Z,97503.34
2023-05-22T20:36:49.853Z,97488.00
2023-05-22T20:38:51.216Z,97491.31
2023-05-22T20:40:52.572Z,97493.00
2023-05-22T20:42:53.909Z,97496.34
2023-05-22T20:44:55.366Z,97495.53
2023-05-22T20:46:56.744Z,97491.22
2023-05-22T20:48:58.415Z,97491.03
2023-05-22T20:50:59.852Z,97483.84
2023-05-22T20:53:01.179Z,97493.72
2023-05-22T20:55:02.569Z,97489.91
2023-05-22T20:57:03.930Z,97495.59
2023-05-22T20:59:05.330Z,97493.56
2023-05-22T21:01:06.716Z,97492.41
2023-05-22T21:03:08.255Z,97483.38
2023-05-22T21:05:09.699Z,97485.63
2023-05-22T21:07:11.188Z,97486.88
2023-05-22T21:09:12.517Z,97495.53
2023-05-22T21:11:13.869Z,97491.16
2023-05-22T21:13:15.457Z,97486.16
2023-05-22T21:15:17.100Z,97484.44
2023-05-22T21:17:18.515Z,97484.19
2023-05-22T21:19:19.980Z,97482.44
2023-05-22T21:21:21.510Z,97485.69
2023-05-22T21:23:24.644Z,97483.19
2023-05-22T21:25:26.172Z,97484.03
2023-05-22T21:27:27.495Z,97477.72
2023-05-22T21:29:28.826Z,97477.66
2023-05-22T21:31:30.300Z,97475.41
2023-05-22T21:33:31.651Z,97478.28
2023-05-22T21:35:32.991Z,97476.50
2023-05-22T21:37:34.311Z,97463.84
2023-05-22T21:39:35.686Z,97468.38
2023-05-22T21:41:37.016Z,97473.13
2023-05-22T21:43:38.404Z,97471.53
2023-05-22T21:45:39.755Z,97468.22
2023-05-22T21:47:41.294Z,97470.84
2023-05-22T21:49:42.743Z,97462.34
2023-05-22T21:51:44.144Z,97467.41
2023-05-22T21:53:45.597Z,97465.22
2023-05-22T21:55:46.987Z,97458.69
2023-05-22T21:57:48.392Z,97464.72
2023-05-22T21:59:51.305Z,97465.97
2023-05-22T22:01:52.747Z,97467.94
2023-05-22T22:03:54.334Z,97455.41
2023-05-22T22:05:55.873Z,97455.59
2023-05-22T22:07:57.208Z,97451.44
2023-05-22T22:09:58.605Z,97450.69
2023-05-22T22:12:00.043Z,97452.47
2023-05-22T22:14:02.251Z,97444.81
2023-05-22T22:16:03.810Z,97443.16
2023-05-22T22:18:05.367Z,97438.03
2023-05-22T22:20:07.189Z,97432.09
2023-05-22T22:22:08.559Z,97427.91
2023-05-22T22:24:09.883Z,97428.88
2023-05-22T22:26:12.173Z,97422.84
2023-05-22T22:28:13.525Z,97424.72
2023-05-22T22:30:14.854Z,97421.41
2023-05-22T22:32:16.289Z,97422.34
2023-05-22T22:34:17.830Z,97427.47
2023-05-22T22:36:19.184Z,97428.38
2023-05-22T22:38:20.527Z,97424.13
2023-05-22T22:40:21.913Z,97423.22
2023-05-22T22:42:23.271Z,97425.75
2023-05-22T22:44:24.592Z,97423.31
2023-05-22T22:46:26.475Z,97424.22
2023-05-22T22:48:27.805Z,97426.81
2023-05-22T22:50:29.767Z,97417.53
2023-05-22T22:52:31.176Z,97427.81
2023-05-22T22:54:32.605Z,97425.25
2023-05-22T22:56:33.985Z,97422.72
2023-05-22T22:58:36.493Z,97428.75
2023-05-22T23:00:37.833Z,97427.91
2023-05-22T23:02:39.188Z,97421.19
2023-05-22T23:04:40.607Z,97429.69
2023-05-22T23:06:42.661Z,97427.84
2023-05-22T23:08:44.062Z,97431.19
2023-05-22T23:10:45.639Z,97430.38
2023-05-22T23:12:46.964Z,97426.91
2023-05-22T23:14:50.462Z,97424.34
2023-05-22T23:16:51.866Z,97420.97
2023-05-22T23:18:53.323Z,97418.47
2023-05-22T23:20:54.716Z,97412.56
2023-05-22T23:22:56.080Z,97408.31
2023-05-22T23:24:57.403Z,97409.13
2023-05-22T23:26:58.789Z,97404.81
2023-05-22T23:29:00.165Z,97403.97
2023-05-22T23:31:01.506Z,97397.16
2023-05-22T23:33:02.984Z,97403.97
2023-05-22T23:35:04.344Z,97397.19
2023-05-22T23:37:05.760Z,97395.53
2023-05-22T23:39:07.214Z,97390.41
2023-05-22T23:41:08.545Z,97388.75
2023-05-22T23:43:09.864Z,97385.41
2023-05-22T23:45:11.190Z,97395.63
2023-05-22T23:47:12.525Z,97389.69
2023-05-22T23:49:13.865Z,97373.50
2023-05-22T23:51:15.282Z,97382.00
2023-05-22T23:53:16.610Z,97371.72
2023-05-22T23:55:17.939Z,97371.50
2023-05-22T23:57:19.264Z,97368.84
2023-05-22T23:59:20.664Z,97381.53
